sensor_id;sensor_type;location;lat;lon;timestamp;P1;durP1;ratioP1;P2;durP2;ratioP2
19810;SDS011;10065;49.632;8.346;2022-09-12T00:00:20;12.70;;;8.43;;
19810;SDS011;10065;49.632;8.346;2022-09-12T00:02:50;12.07;;;8.87;;
19810;SDS011;10065;49.632;8.346;2022-09-12T00:05:20;12.20;;;9.47;;
19810;SDS011;10065;49.632;8.346;2022-09-12T00:07:48;11.67;;;8.90;;
19810;SDS011;10065;49.632;8.346;2022-09-12T00:10:16;13.40;;;10.33;;
19810;SDS011;10065;49.632;8.346;2022-09-12T00:12:44;13.23;;;10.33;;
19810;SDS011;10065;49.632;8.346;2022-09-12T00:15:12;15.93;;;10.60;;
19810;SDS011;10065;49.632;8.346;2022-09-12T00:17:40;17.43;;;12.30;;
19810;SDS011;10065;49.632;8.346;2022-09-12T00:20:08;18.13;;;11.63;;
19810;SDS011;10065;49.632;8.346;2022-09-12T00:22:37;14.93;;;11.93;;
19810;SDS011;10065;49.632;8.346;2022-09-12T00:25:05;14.43;;;10.33;;
19810;SDS011;10065;49.632;8.346;2022-09-12T00:27:34;17.20;;;11.60;;
19810;SDS011;10065;49.632;8.346;2022-09-12T00:30:03;17.87;;;11.80;;
19810;SDS011;10065;49.632;8.346;2022-09-12T00:32:32;17.83;;;11.93;;
19810;SDS011;10065;49.632;8.346;2022-09-12T00:35:00;17.83;;;11.07;;
19810;SDS011;10065;49.632;8.346;2022-09-12T00:37:28;17.97;;;11.47;;
19810;SDS011;10065;49.632;8.346;2022-09-12T00:39:57;15.70;;;11.03;;
19810;SDS011;10065;49.632;8.346;2022-09-12T00:42:25;14.90;;;11.43;;
19810;SDS011;10065;49.632;8.346;2022-09-12T00:44:53;15.57;;;11.10;;
19810;SDS011;10065;49.632;8.346;2022-09-12T00:47:24;17.73;;;11.40;;
19810;SDS011;10065;49.632;8.346;2022-09-12T00:49:55;15.13;;;11.20;;
19810;SDS011;10065;49.632;8.346;2022-09-12T00:52:27;14.87;;;11.03;;
19810;SDS011;10065;49.632;8.346;2022-09-12T00:55:01;16.43;;;11.77;;
19810;SDS011;10065;49.632;8.346;2022-09-12T00:57:34;17.97;;;10.93;;
19810;SDS011;10065;49.632;8.346;2022-09-12T01:00:05;12.50;;;9.30;;
19810;SDS011;10065;49.632;8.346;2022-09-12T01:02:38;12.03;;;9.73;;
19810;SDS011;10065;49.632;8.346;2022-09-12T01:05:07;15.97;;;10.10;;
19810;SDS011;10065;49.632;8.346;2022-09-12T01:07:36;11.93;;;9.30;;
19810;SDS011;10065;49.632;8.346;2022-09-12T01:10:07;13.33;;;9.63;;
19810;SDS011;10065;49.632;8.346;2022-09-12T01:12:36;12.80;;;9.80;;
19810;SDS011;10065;49.632;8.346;2022-09-12T01:15:07;11.93;;;8.87;;
19810;SDS011;10065;49.632;8.346;2022-09-12T01:17:37;16.17;;;9.50;;
19810;SDS011;10065;49.632;8.346;2022-09-12T01:26:34;12.90;;;9.23;;
19810;SDS011;10065;49.632;8.346;2022-09-12T01:29:24;15.27;;;9.67;;
19810;SDS011;10065;49.632;8.346;2022-09-12T01:32:14;12.57;;;9.40;;
19810;SDS011;10065;49.632;8.346;2022-09-12T01:34:51;13.87;;;9.70;;
19810;SDS011;10065;49.632;8.346;2022-09-12T01:37:26;13.97;;;9.67;;
19810;SDS011;10065;49.632;8.346;2022-09-12T01:40:02;12.70;;;9.80;;
19810;SDS011;10065;49.632;8.346;2022-09-12T01:42:37;13.17;;;10.07;;
19810;SDS011;10065;49.632;8.346;2022-09-12T01:45:13;13.60;;;9.73;;
19810;SDS011;10065;49.632;8.346;2022-09-12T01:47:50;14.27;;;9.83;;
19810;SDS011;10065;49.632;8.346;2022-09-12T01:50:23;14.13;;;10.20;;
19810;SDS011;10065;49.632;8.346;2022-09-12T01:52:55;15.47;;;10.43;;
19810;SDS011;10065;49.632;8.346;2022-09-12T01:55:26;16.33;;;11.30;;
19810;SDS011;10065;49.632;8.346;2022-09-12T01:57:58;18.67;;;11.57;;
19810;SDS011;10065;49.632;8.346;2022-09-12T02:00:31;16.60;;;11.80;;
19810;SDS011;10065;49.632;8.346;2022-09-12T02:03:03;18.73;;;12.83;;
19810;SDS011;10065;49.632;8.346;2022-09-12T02:05:38;15.20;;;11.33;;
19810;SDS011;10065;49.632;8.346;2022-09-12T02:08:12;17.17;;;11.73;;
19810;SDS011;10065;49.632;8.346;2022-09-12T02:10:43;17.47;;;12.03;;
19810;SDS011;10065;49.632;8.346;2022-09-12T02:13:16;17.70;;;12.17;;
19810;SDS011;10065;49.632;8.346;2022-09-12T02:15:48;15.50;;;11.20;;
19810;SDS011;10065;49.632;8.346;2022-09-12T02:18:22;17.90;;;11.03;;
19810;SDS011;10065;49.632;8.346;2022-09-12T02:20:52;15.97;;;12.10;;
19810;SDS011;10065;49.632;8.346;2022-09-12T02:23:21;16.70;;;11.23;;
19810;SDS011;10065;49.632;8.346;2022-09-12T02:25:53;16.73;;;11.20;;
19810;SDS011;10065;49.632;8.346;2022-09-12T02:28:24;18.13;;;12.03;;
19810;SDS011;10065;49.632;8.346;2022-09-12T02:30:58;16.80;;;11.57;;
19810;SDS011;10065;49.632;8.346;2022-09-12T02:33:35;17.20;;;11.23;;
19810;SDS011;10065;49.632;8.346;2022-09-12T02:36:14;17.70;;;11.77;;
19810;SDS011;10065;49.632;8.346;2022-09-12T02:38:49;17.97;;;12.63;;
19810;SDS011;10065;49.632;8.346;2022-09-12T02:41:18;17.40;;;11.87;;
19810;SDS011;10065;49.632;8.346;2022-09-12T02:43:47;17.70;;;11.93;;
19810;SDS011;10065;49.632;8.346;2022-09-12T02:46:17;17.37;;;11.50;;
19810;SDS011;10065;49.632;8.346;2022-09-12T02:48:51;22.30;;;12.23;;
19810;SDS011;10065;49.632;8.346;2022-09-12T02:51:19;17.30;;;12.27;;
19810;SDS011;10065;49.632;8.346;2022-09-12T02:53:49;18.43;;;12.03;;
19810;SDS011;10065;49.632;8.346;2022-09-12T02:56:17;20.73;;;11.97;;
19810;SDS011;10065;49.632;8.346;2022-09-12T02:58:49;19.07;;;12.50;;
19810;SDS011;10065;49.632;8.346;2022-09-12T03:01:21;19.70;;;13.60;;
19810;SDS011;10065;49.632;8.346;2022-09-12T03:04:10;19.87;;;12.67;;
19810;SDS011;10065;49.632;8.346;2022-09-12T03:06:55;19.57;;;12.30;;
19810;SDS011;10065;49.632;8.346;2022-09-12T03:09:34;16.97;;;12.27;;
19810;SDS011;10065;49.632;8.346;2022-09-12T03:12:11;17.53;;;11.97;;
19810;SDS011;10065;49.632;8.346;2022-09-12T03:14:59;20.93;;;13.17;;
19810;SDS011;10065;49.632;8.346;2022-09-12T03:17:41;19.97;;;13.47;;
19810;SDS011;10065;49.632;8.346;2022-09-12T03:20:21;17.53;;;12.37;;
19810;SDS011;10065;49.632;8.346;2022-09-12T03:22:57;20.30;;;13.33;;
19810;SDS011;10065;49.632;8.346;2022-09-12T03:25:29;21.37;;;13.57;;
19810;SDS011;10065;49.632;8.346;2022-09-12T03:28:02;22.33;;;14.50;;
19810;SDS011;10065;49.632;8.346;2022-09-12T03:30:36;20.33;;;13.53;;
19810;SDS011;10065;49.632;8.346;2022-09-12T03:33:05;22.20;;;14.83;;
19810;SDS011;10065;49.632;8.346;2022-09-12T03:35:38;23.43;;;15.20;;
19810;SDS011;10065;49.632;8.346;2022-09-12T03:38:06;22.60;;;15.97;;
19810;SDS011;10065;49.632;8.346;2022-09-12T03:40:34;23.60;;;15.40;;
19810;SDS011;10065;49.632;8.346;2022-09-12T03:43:02;24.77;;;15.20;;
19810;SDS011;10065;49.632;8.346;2022-09-12T03:45:30;20.47;;;15.03;;
19810;SDS011;10065;49.632;8.346;2022-09-12T03:47:58;24.87;;;14.73;;
19810;SDS011;10065;49.632;8.346;2022-09-12T03:50:26;24.27;;;15.37;;
19810;SDS011;10065;49.632;8.346;2022-09-12T03:52:55;23.37;;;14.70;;
19810;SDS011;10065;49.632;8.346;2022-09-12T03:55:25;24.53;;;14.23;;
19810;SDS011;10065;49.632;8.346;2022-09-12T03:57:52;22.20;;;14.40;;
19810;SDS011;10065;49.632;8.346;2022-09-12T04:00:20;20.57;;;14.53;;
19810;SDS011;10065;49.632;8.346;2022-09-12T04:02:52;21.03;;;14.07;;
19810;SDS011;10065;49.632;8.346;2022-09-12T04:05:21;23.93;;;14.27;;
19810;SDS011;10065;49.632;8.346;2022-09-12T04:07:48;19.83;;;13.67;;
19810;SDS011;10065;49.632;8.346;2022-09-12T04:10:18;21.53;;;14.23;;
19810;SDS011;10065;49.632;8.346;2022-09-12T04:12:45;21.20;;;13.47;;
19810;SDS011;10065;49.632;8.346;2022-09-12T04:15:13;18.33;;;13.10;;
19810;SDS011;10065;49.632;8.346;2022-09-12T04:17:41;19.87;;;14.00;;
19810;SDS011;10065;49.632;8.346;2022-09-12T04:20:08;19.77;;;13.53;;
19810;SDS011;10065;49.632;8.346;2022-09-12T04:22:36;20.37;;;13.73;;
19810;SDS011;10065;49.632;8.346;2022-09-12T04:25:04;19.97;;;13.83;;
19810;SDS011;10065;49.632;8.346;2022-09-12T04:27:36;23.90;;;13.37;;
19810;SDS011;10065;49.632;8.346;2022-09-12T04:30:04;24.57;;;14.20;;
19810;SDS011;10065;49.632;8.346;2022-09-12T04:32:32;23.27;;;14.93;;
19810;SDS011;10065;49.632;8.346;2022-09-12T04:35:00;23.87;;;14.70;;
19810;SDS011;10065;49.632;8.346;2022-09-12T04:37:27;20.47;;;13.87;;
19810;SDS011;10065;49.632;8.346;2022-09-12T04:39:55;23.67;;;14.80;;
19810;SDS011;10065;49.632;8.346;2022-09-12T04:42:24;22.73;;;13.90;;
19810;SDS011;10065;49.632;8.346;2022-09-12T04:44:53;22.63;;;14.20;;
19810;SDS011;10065;49.632;8.346;2022-09-12T04:47:21;21.40;;;14.40;;
19810;SDS011;10065;49.632;8.346;2022-09-12T04:49:49;22.83;;;14.27;;
19810;SDS011;10065;49.632;8.346;2022-09-12T04:52:17;22.90;;;13.57;;
19810;SDS011;10065;49.632;8.346;2022-09-12T04:54:45;25.27;;;14.00;;
19810;SDS011;10065;49.632;8.346;2022-09-12T04:57:12;26.30;;;16.13;;
19810;SDS011;10065;49.632;8.346;2022-09-12T04:59:40;25.33;;;16.37;;
19810;SDS011;10065;49.632;8.346;2022-09-12T05:02:09;26.60;;;17.20;;
19810;SDS011;10065;49.632;8.346;2022-09-12T05:04:37;31.73;;;16.77;;
19810;SDS011;10065;49.632;8.346;2022-09-12T05:07:04;28.70;;;16.47;;
19810;SDS011;10065;49.632;8.346;2022-09-12T05:09:32;25.30;;;15.13;;
19810;SDS011;10065;49.632;8.346;2022-09-12T05:12:00;29.27;;;17.90;;
19810;SDS011;10065;49.632;8.346;2022-09-12T05:14:30;24.17;;;15.37;;
19810;SDS011;10065;49.632;8.346;2022-09-12T05:16:59;23.87;;;15.37;;
19810;SDS011;10065;49.632;8.346;2022-09-12T05:19:29;25.97;;;15.97;;
19810;SDS011;10065;49.632;8.346;2022-09-12T05:21:58;20.60;;;14.60;;
19810;SDS011;10065;49.632;8.346;2022-09-12T05:24:26;21.57;;;14.77;;
19810;SDS011;10065;49.632;8.346;2022-09-12T05:26:54;22.50;;;15.53;;
19810;SDS011;10065;49.632;8.346;2022-09-12T05:29:21;22.30;;;15.90;;
19810;SDS011;10065;49.632;8.346;2022-09-12T05:31:50;23.67;;;16.20;;
19810;SDS011;10065;49.632;8.346;2022-09-12T05:34:19;23.53;;;15.57;;
19810;SDS011;10065;49.632;8.346;2022-09-12T05:36:48;23.83;;;16.07;;
19810;SDS011;10065;49.632;8.346;2022-09-12T05:39:16;24.53;;;16.13;;
19810;SDS011;10065;49.632;8.346;2022-09-12T05:41:43;28.93;;;17.40;;
19810;SDS011;10065;49.632;8.346;2022-09-12T05:44:12;24.23;;;15.13;;
19810;SDS011;10065;49.632;8.346;2022-09-12T05:46:41;28.90;;;15.23;;
19810;SDS011;10065;49.632;8.346;2022-09-12T05:49:10;23.10;;;15.27;;
19810;SDS011;10065;49.632;8.346;2022-09-12T05:51:40;23.13;;;14.47;;
19810;SDS011;10065;49.632;8.346;2022-09-12T05:54:11;24.43;;;14.60;;
19810;SDS011;10065;49.632;8.346;2022-09-12T05:56:40;22.87;;;14.67;;
19810;SDS011;10065;49.632;8.346;2022-09-12T05:59:10;22.63;;;14.93;;
19810;SDS011;10065;49.632;8.346;2022-09-12T06:01:39;22.00;;;14.27;;
19810;SDS011;10065;49.632;8.346;2022-09-12T06:04:07;23.17;;;14.50;;
19810;SDS011;10065;49.632;8.346;2022-09-12T06:06:36;21.60;;;14.63;;
19810;SDS011;10065;49.632;8.346;2022-09-12T06:09:06;21.73;;;14.70;;
19810;SDS011;10065;49.632;8.346;2022-09-12T06:11:37;20.27;;;13.80;;
19810;SDS011;10065;49.632;8.346;2022-09-12T06:14:07;22.47;;;15.27;;
19810;SDS011;10065;49.632;8.346;2022-09-12T06:16:35;23.33;;;15.57;;
19810;SDS011;10065;49.632;8.346;2022-09-12T06:19:04;22.43;;;15.00;;
19810;SDS011;10065;49.632;8.346;2022-09-12T06:21:33;25.13;;;15.47;;
19810;SDS011;10065;49.632;8.346;2022-09-12T06:24:04;25.40;;;15.63;;
19810;SDS011;10065;49.632;8.346;2022-09-12T06:26:32;22.83;;;15.43;;
19810;SDS011;10065;49.632;8.346;2022-09-12T06:29:01;25.40;;;16.00;;
19810;SDS011;10065;49.632;8.346;2022-09-12T06:31:30;23.90;;;16.13;;
19810;SDS011;10065;49.632;8.346;2022-09-12T06:34:00;25.23;;;15.73;;
19810;SDS011;10065;49.632;8.346;2022-09-12T06:36:29;26.33;;;14.83;;
19810;SDS011;10065;49.632;8.346;2022-09-12T06:38:58;24.00;;;15.27;;
19810;SDS011;10065;49.632;8.346;2022-09-12T06:41:28;22.23;;;15.60;;
19810;SDS011;10065;49.632;8.346;2022-09-12T06:43:57;24.30;;;15.53;;
19810;SDS011;10065;49.632;8.346;2022-09-12T06:46:27;23.10;;;16.07;;
19810;SDS011;10065;49.632;8.346;2022-09-12T06:48:56;25.20;;;15.80;;
19810;SDS011;10065;49.632;8.346;2022-09-12T06:51:24;32.17;;;17.23;;
19810;SDS011;10065;49.632;8.346;2022-09-12T06:53:53;23.40;;;16.07;;
19810;SDS011;10065;49.632;8.346;2022-09-12T06:56:23;23.33;;;15.93;;
19810;SDS011;10065;49.632;8.346;2022-09-12T06:58:54;27.57;;;16.37;;
19810;SDS011;10065;49.632;8.346;2022-09-12T07:01:23;23.70;;;16.60;;
19810;SDS011;10065;49.632;8.346;2022-09-12T07:03:54;27.43;;;16.77;;
19810;SDS011;10065;49.632;8.346;2022-09-12T07:06:24;23.33;;;15.93;;
19810;SDS011;10065;49.632;8.346;2022-09-12T07:08:56;24.33;;;15.20;;
19810;SDS011;10065;49.632;8.346;2022-09-12T07:11:25;22.67;;;15.90;;
19810;SDS011;10065;49.632;8.346;2022-09-12T07:13:55;24.00;;;17.00;;
19810;SDS011;10065;49.632;8.346;2022-09-12T07:16:24;25.13;;;16.93;;
19810;SDS011;10065;49.632;8.346;2022-09-12T07:18:54;23.33;;;16.40;;
19810;SDS011;10065;49.632;8.346;2022-09-12T07:21:23;22.00;;;15.97;;
19810;SDS011;10065;49.632;8.346;2022-09-12T07:23:51;25.37;;;15.60;;
19810;SDS011;10065;49.632;8.346;2022-09-12T07:26:20;22.63;;;15.83;;
19810;SDS011;10065;49.632;8.346;2022-09-12T07:28:49;21.20;;;15.53;;
19810;SDS011;10065;49.632;8.346;2022-09-12T07:31:19;20.27;;;15.20;;
19810;SDS011;10065;49.632;8.346;2022-09-12T07:33:48;24.43;;;16.27;;
19810;SDS011;10065;49.632;8.346;2022-09-12T07:36:22;26.27;;;17.43;;
19810;SDS011;10065;49.632;8.346;2022-09-12T07:38:54;21.80;;;15.63;;
19810;SDS011;10065;49.632;8.346;2022-09-12T07:41:23;23.20;;;14.93;;
19810;SDS011;10065;49.632;8.346;2022-09-12T07:43:53;24.43;;;16.33;;
19810;SDS011;10065;49.632;8.346;2022-09-12T07:46:22;20.93;;;15.33;;
19810;SDS011;10065;49.632;8.346;2022-09-12T07:48:50;20.80;;;15.30;;
19810;SDS011;10065;49.632;8.346;2022-09-12T07:51:18;22.40;;;14.73;;
19810;SDS011;10065;49.632;8.346;2022-09-12T07:53:48;23.27;;;14.60;;
19810;SDS011;10065;49.632;8.346;2022-09-12T07:56:17;23.10;;;16.10;;
19810;SDS011;10065;49.632;8.346;2022-09-12T07:58:48;22.07;;;15.57;;
19810;SDS011;10065;49.632;8.346;2022-09-12T08:01:16;23.33;;;16.50;;
19810;SDS011;10065;49.632;8.346;2022-09-12T08:03:46;23.20;;;15.27;;
19810;SDS011;10065;49.632;8.346;2022-09-12T08:06:15;26.50;;;15.17;;
19810;SDS011;10065;49.632;8.346;2022-09-12T08:08:45;23.13;;;14.67;;
19810;SDS011;10065;49.632;8.346;2022-09-12T08:11:15;21.10;;;15.23;;
19810;SDS011;10065;49.632;8.346;2022-09-12T08:13:44;21.90;;;15.60;;
19810;SDS011;10065;49.632;8.346;2022-09-12T08:16:20;22.37;;;15.90;;
19810;SDS011;10065;49.632;8.346;2022-09-12T08:18:48;24.40;;;16.43;;
19810;SDS011;10065;49.632;8.346;2022-09-12T08:21:17;22.20;;;15.77;;
19810;SDS011;10065;49.632;8.346;2022-09-12T08:23:45;22.27;;;15.37;;
19810;SDS011;10065;49.632;8.346;2022-09-12T08:26:15;21.93;;;15.60;;
19810;SDS011;10065;49.632;8.346;2022-09-12T08:28:43;20.07;;;14.53;;
19810;SDS011;10065;49.632;8.346;2022-09-12T08:31:12;17.73;;;13.77;;
19810;SDS011;10065;49.632;8.346;2022-09-12T08:33:41;22.97;;;14.80;;
19810;SDS011;10065;49.632;8.346;2022-09-12T08:36:10;23.20;;;16.03;;
19810;SDS011;10065;49.632;8.346;2022-09-12T08:38:39;20.17;;;14.53;;
19810;SDS011;10065;49.632;8.346;2022-09-12T08:41:10;19.40;;;14.33;;
19810;SDS011;10065;49.632;8.346;2022-09-12T08:43:54;20.17;;;13.93;;
19810;SDS011;10065;49.632;8.346;2022-09-12T08:46:31;18.37;;;12.53;;
19810;SDS011;10065;49.632;8.346;2022-09-12T08:49:03;18.73;;;13.57;;
19810;SDS011;10065;49.632;8.346;2022-09-12T08:51:36;17.05;;;12.65;;
19810;SDS011;10065;49.632;8.346;2022-09-12T08:54:08;20.17;;;11.57;;
19810;SDS011;10065;49.632;8.346;2022-09-12T08:56:43;13.43;;;10.50;;
19810;SDS011;10065;49.632;8.346;2022-09-12T08:59:14;12.18;;;8.57;;
19810;SDS011;10065;49.632;8.346;2022-09-12T09:01:42;16.67;;;9.45;;
19810;SDS011;10065;49.632;8.346;2022-09-12T09:04:17;13.40;;;8.88;;
19810;SDS011;10065;49.632;8.346;2022-09-12T09:07:06;12.93;;;9.60;;
19810;SDS011;10065;49.632;8.346;2022-09-12T09:09:53;13.88;;;10.20;;
19810;SDS011;10065;49.632;8.346;2022-09-12T09:12:32;12.77;;;10.65;;
19810;SDS011;10065;49.632;8.346;2022-09-12T09:15:15;12.35;;;9.82;;
19810;SDS011;10065;49.632;8.346;2022-09-12T09:17:53;13.23;;;10.15;;
19810;SDS011;10065;49.632;8.346;2022-09-12T09:20:26;11.60;;;8.65;;
19810;SDS011;10065;49.632;8.346;2022-09-12T09:22:58;10.43;;;8.70;;
19810;SDS011;10065;49.632;8.346;2022-09-12T09:25:34;12.68;;;9.35;;
19810;SDS011;10065;49.632;8.346;2022-09-12T09:28:11;11.45;;;7.93;;
19810;SDS011;10065;49.632;8.346;2022-09-12T09:30:44;12.43;;;8.30;;
19810;SDS011;10065;49.632;8.346;2022-09-12T09:33:15;9.88;;;8.38;;
19810;SDS011;10065;49.632;8.346;2022-09-12T09:35:47;10.90;;;8.50;;
19810;SDS011;10065;49.632;8.346;2022-09-12T09:38:23;10.18;;;8.55;;
19810;SDS011;10065;49.632;8.346;2022-09-12T09:40:59;9.82;;;8.80;;
19810;SDS011;10065;49.632;8.346;2022-09-12T09:43:43;10.63;;;8.23;;
19810;SDS011;10065;49.632;8.346;2022-09-12T09:46:12;11.93;;;8.75;;
19810;SDS011;10065;49.632;8.346;2022-09-12T09:48:42;12.23;;;9.82;;
19810;SDS011;10065;49.632;8.346;2022-09-12T09:51:12;11.07;;;8.98;;
19810;SDS011;10065;49.632;8.346;2022-09-12T09:53:43;11.20;;;8.10;;
19810;SDS011;10065;49.632;8.346;2022-09-12T09:56:25;13.73;;;8.88;;
19810;SDS011;10065;49.632;8.346;2022-09-12T09:58:56;8.88;;;7.35;;
19810;SDS011;10065;49.632;8.346;2022-09-12T10:01:36;13.73;;;8.38;;
19810;SDS011;10065;49.632;8.346;2022-09-12T10:04:15;11.15;;;7.82;;
19810;SDS011;10065;49.632;8.346;2022-09-12T10:06:45;11.50;;;9.18;;
19810;SDS011;10065;49.632;8.346;2022-09-12T10:09:18;12.82;;;10.07;;
19810;SDS011;10065;49.632;8.346;2022-09-12T10:11:48;13.32;;;10.05;;
19810;SDS011;10065;49.632;8.346;2022-09-12T10:14:30;12.15;;;10.02;;
19810;SDS011;10065;49.632;8.346;2022-09-12T10:17:04;11.57;;;8.10;;
19810;SDS011;10065;49.632;8.346;2022-09-12T10:19:49;10.82;;;8.27;;
19810;SDS011;10065;49.632;8.346;2022-09-12T10:22:38;11.38;;;7.93;;
19810;SDS011;10065;49.632;8.346;2022-09-12T10:25:08;10.70;;;8.15;;
19810;SDS011;10065;49.632;8.346;2022-09-12T10:27:38;7.63;;;6.00;;
19810;SDS011;10065;49.632;8.346;2022-09-12T10:30:15;8.57;;;6.38;;
19810;SDS011;10065;49.632;8.346;2022-09-12T10:32:47;11.07;;;7.10;;
19810;SDS011;10065;49.632;8.346;2022-09-12T10:35:17;9.60;;;6.28;;
19810;SDS011;10065;49.632;8.346;2022-09-12T10:37:49;8.98;;;6.07;;
19810;SDS011;10065;49.632;8.346;2022-09-12T10:40:21;11.23;;;6.60;;
19810;SDS011;10065;49.632;8.346;2022-09-12T10:42:52;10.10;;;6.82;;
19810;SDS011;10065;49.632;8.346;2022-09-12T10:45:24;14.13;;;7.65;;
19810;SDS011;10065;49.632;8.346;2022-09-12T10:47:57;9.95;;;7.80;;
19810;SDS011;10065;49.632;8.346;2022-09-12T10:50:34;10.13;;;7.50;;
19810;SDS011;10065;49.632;8.346;2022-09-12T10:53:12;11.10;;;7.60;;
19810;SDS011;10065;49.632;8.346;2022-09-12T10:55:51;10.55;;;7.88;;
19810;SDS011;10065;49.632;8.346;2022-09-12T10:58:35;13.05;;;7.97;;
19810;SDS011;10065;49.632;8.346;2022-09-12T11:01:16;11.63;;;7.50;;
19810;SDS011;10065;49.632;8.346;2022-09-12T11:04:01;13.48;;;7.53;;
19810;SDS011;10065;49.632;8.346;2022-09-12T11:06:57;11.30;;;8.05;;
19810;SDS011;10065;49.632;8.346;2022-09-12T11:09:41;11.73;;;7.78;;
19810;SDS011;10065;49.632;8.346;2022-09-12T11:12:18;13.68;;;7.97;;
19810;SDS011;10065;49.632;8.346;2022-09-12T11:14:55;11.77;;;8.35;;
19810;SDS011;10065;49.632;8.346;2022-09-12T11:17:40;12.48;;;8.43;;
19810;SDS011;10065;49.632;8.346;2022-09-12T11:26:24;10.30;;;7.05;;
19810;SDS011;10065;49.632;8.346;2022-09-12T11:29:09;10.02;;;6.97;;
19810;SDS011;10065;49.632;8.346;2022-09-12T11:31:47;11.65;;;7.85;;
19810;SDS011;10065;49.632;8.346;2022-09-12T11:34:27;10.13;;;6.75;;
19810;SDS011;10065;49.632;8.346;2022-09-12T11:37:10;11.68;;;7.18;;
19810;SDS011;10065;49.632;8.346;2022-09-12T11:39:50;8.32;;;6.10;;
19810;SDS011;10065;49.632;8.346;2022-09-12T11:42:28;11.45;;;6.68;;
19810;SDS011;10065;49.632;8.346;2022-09-12T11:45:00;10.85;;;5.25;;
19810;SDS011;10065;49.632;8.346;2022-09-12T11:47:34;11.25;;;6.45;;
19810;SDS011;10065;49.632;8.346;2022-09-12T11:50:04;7.75;;;6.05;;
19810;SDS011;10065;49.632;8.346;2022-09-12T11:52:45;8.55;;;6.00;;
19810;SDS011;10065;49.632;8.346;2022-09-12T11:55:15;9.25;;;6.60;;
19810;SDS011;10065;49.632;8.346;2022-09-12T11:57:47;9.80;;;6.93;;
19810;SDS011;10065;49.632;8.346;2022-09-12T12:00:19;11.35;;;6.53;;
19810;SDS011;10065;49.632;8.346;2022-09-12T12:02:53;11.13;;;7.10;;
19810;SDS011;10065;49.632;8.346;2022-09-12T12:05:27;13.57;;;6.05;;
19810;SDS011;10065;49.632;8.346;2022-09-12T12:08:00;7.50;;;5.70;;
19810;SDS011;10065;49.632;8.346;2022-09-12T12:10:31;8.95;;;7.00;;
19810;SDS011;10065;49.632;8.346;2022-09-12T12:13:05;7.72;;;6.35;;
19810;SDS011;10065;49.632;8.346;2022-09-12T12:15:43;8.77;;;6.35;;
19810;SDS011;10065;49.632;8.346;2022-09-12T12:18:14;9.48;;;6.55;;
19810;SDS011;10065;49.632;8.346;2022-09-12T12:23:24;8.30;;;5.70;;
19810;SDS011;10065;49.632;8.346;2022-09-12T12:25:55;7.03;;;5.30;;
19810;SDS011;10065;49.632;8.346;2022-09-12T12:31:25;6.18;;;5.25;;
19810;SDS011;10065;49.632;8.346;2022-09-12T12:33:54;8.73;;;4.70;;
19810;SDS011;10065;49.632;8.346;2022-09-12T12:36:47;6.22;;;4.53;;
19810;SDS011;10065;49.632;8.346;2022-09-12T12:51:38;4.95;;;4.00;;
19810;SDS011;10065;49.632;8.346;2022-09-12T12:54:27;5.50;;;3.55;;
19810;SDS011;10065;49.632;8.346;2022-09-12T12:57:34;8.55;;;4.53;;
19810;SDS011;10065;49.632;8.346;2022-09-12T13:03:07;6.38;;;4.38;;
19810;SDS011;10065;49.632;8.346;2022-09-12T13:05:45;6.72;;;3.88;;
19810;SDS011;10065;49.632;8.346;2022-09-12T13:08:25;6.10;;;3.75;;
19810;SDS011;10065;49.632;8.346;2022-09-12T13:10:58;10.80;;;3.75;;
19810;SDS011;10065;49.632;8.346;2022-09-12T13:13:29;5.30;;;3.25;;
19810;SDS011;10065;49.632;8.346;2022-09-12T13:16:03;5.03;;;3.45;;
19810;SDS011;10065;49.632;8.346;2022-09-12T13:18:32;5.82;;;3.40;;
19810;SDS011;10065;49.632;8.346;2022-09-12T13:21:07;6.15;;;2.83;;
19810;SDS011;10065;49.632;8.346;2022-09-12T13:23:38;4.85;;;3.10;;
19810;SDS011;10065;49.632;8.346;2022-09-12T13:26:09;5.00;;;2.58;;
19810;SDS011;10065;49.632;8.346;2022-09-12T13:28:38;3.00;;;2.47;;
19810;SDS011;10065;49.632;8.346;2022-09-12T13:31:09;3.70;;;2.60;;
19810;SDS011;10065;49.632;8.346;2022-09-12T13:33:43;12.80;;;2.88;;
19810;SDS011;10065;49.632;8.346;2022-09-12T13:36:26;5.35;;;2.30;;
19810;SDS011;10065;49.632;8.346;2022-09-12T13:39:09;5.05;;;2.50;;
19810;SDS011;10065;49.632;8.346;2022-09-12T13:41:47;3.90;;;2.25;;
19810;SDS011;10065;49.632;8.346;2022-09-12T13:44:41;4.53;;;1.92;;
19810;SDS011;10065;49.632;8.346;2022-09-12T13:47:14;6.25;;;2.70;;
19810;SDS011;10065;49.632;8.346;2022-09-12T13:49:46;3.45;;;2.33;;
19810;SDS011;10065;49.632;8.346;2022-09-12T13:52:15;3.35;;;2.20;;
19810;SDS011;10065;49.632;8.346;2022-09-12T13:54:45;2.80;;;2.00;;
19810;SDS011;10065;49.632;8.346;2022-09-12T13:57:30;3.20;;;2.10;;
19810;SDS011;10065;49.632;8.346;2022-09-12T13:59:59;3.38;;;2.30;;
19810;SDS011;10065;49.632;8.346;2022-09-12T14:02:34;6.70;;;2.25;;
19810;SDS011;10065;49.632;8.346;2022-09-12T14:05:13;3.22;;;2.28;;
19810;SDS011;10065;49.632;8.346;2022-09-12T14:07:50;4.65;;;2.08;;
19810;SDS011;10065;49.632;8.346;2022-09-12T14:10:25;3.08;;;2.15;;
19810;SDS011;10065;49.632;8.346;2022-09-12T14:12:55;5.63;;;2.28;;
19810;SDS011;10065;49.632;8.346;2022-09-12T14:15:25;4.78;;;2.17;;
19810;SDS011;10065;49.632;8.346;2022-09-12T14:17:56;4.22;;;2.17;;
19810;SDS011;10065;49.632;8.346;2022-09-12T14:20:27;4.30;;;2.22;;
19810;SDS011;10065;49.632;8.346;2022-09-12T14:22:58;2.60;;;2.03;;
19810;SDS011;10065;49.632;8.346;2022-09-12T14:25:29;7.97;;;2.53;;
19810;SDS011;10065;49.632;8.346;2022-09-12T14:28:03;3.22;;;2.00;;
19810;SDS011;10065;49.632;8.346;2022-09-12T14:30:33;4.75;;;2.30;;
19810;SDS011;10065;49.632;8.346;2022-09-12T14:33:17;3.03;;;1.98;;
19810;SDS011;10065;49.632;8.346;2022-09-12T14:35:47;5.18;;;2.13;;
19810;SDS011;10065;49.632;8.346;2022-09-12T14:38:19;5.18;;;2.33;;
19810;SDS011;10065;49.632;8.346;2022-09-12T14:40:51;6.10;;;2.28;;
19810;SDS011;10065;49.632;8.346;2022-09-12T14:43:26;3.13;;;2.03;;
19810;SDS011;10065;49.632;8.346;2022-09-12T14:45:57;4.03;;;2.05;;
19810;SDS011;10065;49.632;8.346;2022-09-12T14:48:30;4.20;;;1.85;;
19810;SDS011;10065;49.632;8.346;2022-09-12T14:51:01;3.05;;;1.90;;
19810;SDS011;10065;49.632;8.346;2022-09-12T14:53:31;6.53;;;2.13;;
19810;SDS011;10065;49.632;8.346;2022-09-12T14:56:07;3.40;;;2.33;;
19810;SDS011;10065;49.632;8.346;2022-09-12T14:58:36;3.00;;;1.92;;
19810;SDS011;10065;49.632;8.346;2022-09-12T15:03:54;5.30;;;2.10;;
19810;SDS011;10065;49.632;8.346;2022-09-12T15:06:25;5.50;;;2.10;;
19810;SDS011;10065;49.632;8.346;2022-09-12T15:08:55;3.25;;;2.30;;
19810;SDS011;10065;49.632;8.346;2022-09-12T15:11:24;3.70;;;2.10;;
19810;SDS011;10065;49.632;8.346;2022-09-12T15:13:52;3.00;;;1.90;;
19810;SDS011;10065;49.632;8.346;2022-09-12T15:16:20;2.95;;;1.90;;
19810;SDS011;10065;49.632;8.346;2022-09-12T15:18:48;7.35;;;2.22;;
19810;SDS011;10065;49.632;8.346;2022-09-12T15:21:17;3.53;;;2.03;;
19810;SDS011;10065;49.632;8.346;2022-09-12T15:23:46;3.65;;;2.30;;
19810;SDS011;10065;49.632;8.346;2022-09-12T15:26:16;4.60;;;1.80;;
19810;SDS011;10065;49.632;8.346;2022-09-12T15:28:45;3.78;;;1.88;;
19810;SDS011;10065;49.632;8.346;2022-09-12T15:31:16;2.17;;;1.35;;
19810;SDS011;10065;49.632;8.346;2022-09-12T15:33:49;3.55;;;1.73;;
19810;SDS011;10065;49.632;8.346;2022-09-12T15:36:19;5.65;;;1.83;;